EDDP/LEJ METAR and TAF weather

Enter ICAO airport designator
Station Type Date Time Source
EDDP METAR 2019/10/18 06:20 UTC NOAA

EDDP 180620Z 16008KT 9999 FEW025 13/11 Q1011 NOSIG


Station Type Date Time Source
EDDP Decoded METAR 2019/10/18 06:20 UTC NOAA

Leipzig-Schkeuditz, Germany (EDDP) 51-25N 012-14E 149M
Oct 18, 2019 - 02:20 AM EDT / 2019.10.18 0620 UTC
Wind: from the SSE (160 degrees) at 9 MPH (8 KT):0
Visibility: greater than 7 mile(s):0
Sky conditions: mostly clear
Temperature: 55 F (13 C)
Dew Point: 51 F (11 C)
Relative Humidity: 87%
Pressure (altimeter): 29.85 in. Hg (1011 hPa)
ob: EDDP 180620Z 16008KT 9999 FEW025 13/11 Q1011 NOSIG
cycle: 6

Station Type Date Time Source
EDDP TAF 2019/10/18 06:27 UTC NOAA

TAF EDDP 180500Z 1806/1906 17007KT 9999 SCT030
BECMG 1808/1810 20012KT
BECMG 1818/1820 23007KT
BECMG 1900/1903 17003KT

Example: see airport list